sensor_id;sensor_type;location;lat;lon;timestamp;pressure;altitude;pressure_sealevel;temperature;humidity
64076;BME280;50327;51.328;12.324;2022-07-12T00:01:03;53326.84;;;-144.47;67.87
64076;BME280;50327;51.328;12.324;2022-07-12T00:03:28;53350.69;;;-144.47;68.10
64076;BME280;50327;51.328;12.324;2022-07-12T00:05:54;53346.72;;;-144.47;68.08
64076;BME280;50327;51.328;12.324;2022-07-12T00:08:20;53336.78;;;-144.47;68.45
64076;BME280;50327;51.328;12.324;2022-07-12T00:10:45;53316.91;;;-144.47;68.50
64076;BME280;50327;51.328;12.324;2022-07-12T00:13:10;53330.81;;;-144.47;68.20
64076;BME280;50327;51.328;12.324;2022-07-12T00:15:36;53356.63;;;-144.47;68.72
64076;BME280;50327;51.328;12.324;2022-07-12T00:18:02;53305.00;;;-144.47;68.98
64076;BME280;50327;51.328;12.324;2022-07-12T00:20:27;53299.03;;;-144.47;69.15
64076;BME280;50327;51.328;12.324;2022-07-12T00:22:54;53320.88;;;-144.47;69.59
64076;BME280;50327;51.328;12.324;2022-07-12T00:25:20;53344.72;;;-144.47;69.89
64076;BME280;50327;51.328;12.324;2022-07-12T00:27:45;53332.81;;;-144.47;69.43
64076;BME280;50327;51.328;12.324;2022-07-12T00:30:11;53301.03;;;-144.47;69.44
64076;BME280;50327;51.328;12.324;2022-07-12T00:32:36;53344.72;;;-144.47;69.99
64076;BME280;50327;51.328;12.324;2022-07-12T00:35:01;53318.91;;;-144.47;69.96
64076;BME280;50327;51.328;12.324;2022-07-12T00:37:28;53324.84;;;-144.47;69.76
64076;BME280;50327;51.328;12.324;2022-07-12T00:39:53;53340.75;;;-144.47;70.34
64076;BME280;50327;51.328;12.324;2022-07-12T00:42:18;53354.66;;;-144.47;70.19
64076;BME280;50327;51.328;12.324;2022-07-12T00:44:44;53376.50;;;-144.47;70.34
64076;BME280;50327;51.328;12.324;2022-07-12T00:47:28;53338.75;;;-144.47;70.29
64076;BME280;50327;51.328;12.324;2022-07-12T00:49:56;53330.81;;;-144.47;70.14
64076;BME280;50327;51.328;12.324;2022-07-12T00:52:23;53346.72;;;-144.47;70.05
64076;BME280;50327;51.328;12.324;2022-07-12T00:54:49;53362.59;;;-144.47;70.21
64076;BME280;50327;51.328;12.324;2022-07-12T00:57:14;53316.91;;;-144.47;70.11
64076;BME280;50327;51.328;12.324;2022-07-12T00:59:40;53344.72;;;-144.47;70.12
64076;BME280;50327;51.328;12.324;2022-07-12T01:02:05;53348.69;;;-144.47;70.41
64076;BME280;50327;51.328;12.324;2022-07-12T01:04:31;53366.56;;;-144.47;70.34
64076;BME280;50327;51.328;12.324;2022-07-12T01:06:56;53324.84;;;-144.47;70.74
64076;BME280;50327;51.328;12.324;2022-07-12T01:09:21;53334.78;;;-144.47;70.56
64076;BME280;50327;51.328;12.324;2022-07-12T01:11:47;53360.63;;;-144.47;70.73
64076;BME280;50327;51.328;12.324;2022-07-12T01:14:13;53324.84;;;-144.47;70.74
64076;BME280;50327;51.328;12.324;2022-07-12T01:16:39;53324.84;;;-144.47;70.56
64076;BME280;50327;51.328;12.324;2022-07-12T01:19:06;53348.69;;;-144.47;70.64
64076;BME280;50327;51.328;12.324;2022-07-12T01:21:34;53348.69;;;-144.47;70.85
64076;BME280;50327;51.328;12.324;2022-07-12T01:24:02;53336.78;;;-144.47;70.73
64076;BME280;50327;51.328;12.324;2022-07-12T01:28:53;53346.72;;;-144.47;70.74
64076;BME280;50327;51.328;12.324;2022-07-12T01:31:20;53376.50;;;-144.47;71.06
64076;BME280;50327;51.328;12.324;2022-07-12T01:33:45;53356.63;;;-144.47;71.11
64076;BME280;50327;51.328;12.324;2022-07-12T01:36:11;53328.81;;;-144.47;71.31
64076;BME280;50327;51.328;12.324;2022-07-12T01:38:36;53338.75;;;-144.47;71.90
64076;BME280;50327;51.328;12.324;2022-07-12T01:41:01;53340.75;;;-144.47;72.15
64076;BME280;50327;51.328;12.324;2022-07-12T01:43:28;53348.69;;;-144.47;72.57
64076;BME280;50327;51.328;12.324;2022-07-12T01:45:54;53312.94;;;-144.47;72.47
64076;BME280;50327;51.328;12.324;2022-07-12T01:48:19;53318.91;;;-144.47;72.47
64076;BME280;50327;51.328;12.324;2022-07-12T01:50:44;53340.75;;;-144.47;72.88
64076;BME280;50327;51.328;12.324;2022-07-12T01:53:11;53332.81;;;-144.47;72.72
64076;BME280;50327;51.328;12.324;2022-07-12T01:55:37;53360.63;;;-144.47;72.77
64076;BME280;50327;51.328;12.324;2022-07-12T01:58:02;53348.69;;;-144.47;73.17
64076;BME280;50327;51.328;12.324;2022-07-12T02:00:29;53352.66;;;-144.47;73.52
64076;BME280;50327;51.328;12.324;2022-07-12T02:02:54;53346.72;;;-144.47;73.62
64076;BME280;50327;51.328;12.324;2022-07-12T02:05:20;53308.97;;;-144.47;73.67
64076;BME280;50327;51.328;12.324;2022-07-12T02:07:46;53342.72;;;-144.47;73.77
64076;BME280;50327;51.328;12.324;2022-07-12T02:10:13;53342.72;;;-144.47;73.87
64076;BME280;50327;51.328;12.324;2022-07-12T02:12:38;53356.63;;;-144.47;73.84
64076;BME280;50327;51.328;12.324;2022-07-12T02:15:05;53346.72;;;-144.47;74.07
64076;BME280;50327;51.328;12.324;2022-07-12T02:17:31;53326.84;;;-144.47;74.14
64076;BME280;50327;51.328;12.324;2022-07-12T02:19:56;53370.53;;;-144.47;73.99
64076;BME280;50327;51.328;12.324;2022-07-12T02:22:22;53360.63;;;-144.47;74.44
64076;BME280;50327;51.328;12.324;2022-07-12T02:24:47;53352.66;;;-144.47;74.64
64076;BME280;50327;51.328;12.324;2022-07-12T02:27:12;53376.50;;;-144.47;74.63
64076;BME280;50327;51.328;12.324;2022-07-12T02:29:38;53366.56;;;-144.47;74.97
64076;BME280;50327;51.328;12.324;2022-07-12T02:32:04;53308.97;;;-144.47;75.29
64076;BME280;50327;51.328;12.324;2022-07-12T02:34:29;53356.63;;;-144.47;75.41
64076;BME280;50327;51.328;12.324;2022-07-12T02:36:55;53354.66;;;-144.47;75.61
64076;BME280;50327;51.328;12.324;2022-07-12T02:39:20;53368.56;;;-144.47;75.58
64076;BME280;50327;51.328;12.324;2022-07-12T02:41:46;53346.72;;;-144.47;75.73
64076;BME280;50327;51.328;12.324;2022-07-12T02:44:11;53356.63;;;-144.47;75.73
64076;BME280;50327;51.328;12.324;2022-07-12T02:46:36;53330.81;;;-144.47;75.71
64076;BME280;50327;51.328;12.324;2022-07-12T02:49:02;53354.66;;;-144.47;75.86
64076;BME280;50327;51.328;12.324;2022-07-12T02:51:27;53350.69;;;-144.47;76.08
64076;BME280;50327;51.328;12.324;2022-07-12T02:53:53;53330.81;;;-144.47;76.09
64076;BME280;50327;51.328;12.324;2022-07-12T02:56:18;53330.81;;;-144.47;76.29
64076;BME280;50327;51.328;12.324;2022-07-12T02:58:43;53368.56;;;-144.47;76.44
64076;BME280;50327;51.328;12.324;2022-07-12T03:01:09;53376.50;;;-144.47;76.23
64076;BME280;50327;51.328;12.324;2022-07-12T03:03:34;53340.75;;;-144.47;76.44
64076;BME280;50327;51.328;12.324;2022-07-12T03:06:00;53372.53;;;-144.47;76.80
64076;BME280;50327;51.328;12.324;2022-07-12T03:08:25;53338.75;;;-144.47;76.73
64076;BME280;50327;51.328;12.324;2022-07-12T03:10:50;53392.41;;;-144.47;76.99
64076;BME280;50327;51.328;12.324;2022-07-12T03:13:16;53356.63;;;-144.47;76.97
64076;BME280;50327;51.328;12.324;2022-07-12T03:15:41;53328.81;;;-144.47;77.07
64076;BME280;50327;51.328;12.324;2022-07-12T03:18:06;53340.75;;;-144.47;77.10
64076;BME280;50327;51.328;12.324;2022-07-12T03:20:32;53352.66;;;-144.47;77.04
64076;BME280;50327;51.328;12.324;2022-07-12T03:22:57;53360.63;;;-144.47;77.27
64076;BME280;50327;51.328;12.324;2022-07-12T03:25:23;53358.63;;;-144.47;77.45
64076;BME280;50327;51.328;12.324;2022-07-12T03:27:49;53336.78;;;-144.47;77.17
64076;BME280;50327;51.328;12.324;2022-07-12T03:30:15;53348.69;;;-144.47;77.32
64076;BME280;50327;51.328;12.324;2022-07-12T03:32:41;53340.75;;;-144.47;77.46
64076;BME280;50327;51.328;12.324;2022-07-12T03:35:07;53344.72;;;-144.47;77.48
64076;BME280;50327;51.328;12.324;2022-07-12T03:37:47;53352.66;;;-144.47;77.43
64076;BME280;50327;51.328;12.324;2022-07-12T03:40:14;53360.63;;;-144.47;77.49
64076;BME280;50327;51.328;12.324;2022-07-12T03:42:41;53338.75;;;-144.47;77.43
64076;BME280;50327;51.328;12.324;2022-07-12T03:45:07;53376.50;;;-144.47;77.47
64076;BME280;50327;51.328;12.324;2022-07-12T03:47:33;53350.69;;;-144.47;77.64
64076;BME280;50327;51.328;12.324;2022-07-12T03:50:00;53348.69;;;-144.47;77.57
64076;BME280;50327;51.328;12.324;2022-07-12T03:52:26;53350.69;;;-144.47;77.77
64076;BME280;50327;51.328;12.324;2022-07-12T03:54:52;53396.38;;;-144.47;77.55
64076;BME280;50327;51.328;12.324;2022-07-12T03:57:17;53368.56;;;-144.47;77.61
64076;BME280;50327;51.328;12.324;2022-07-12T03:59:44;53356.63;;;-144.47;77.31
64076;BME280;50327;51.328;12.324;2022-07-12T04:02:11;53344.72;;;-144.47;77.25
64076;BME280;50327;51.328;12.324;2022-07-12T04:04:36;53358.63;;;-144.47;77.35
64076;BME280;50327;51.328;12.324;2022-07-12T04:07:02;53340.75;;;-144.47;77.13
64076;BME280;50327;51.328;12.324;2022-07-12T04:09:28;53362.59;;;-144.47;77.05
64076;BME280;50327;51.328;12.324;2022-07-12T04:11:53;53374.50;;;-144.47;77.14
64076;BME280;50327;51.328;12.324;2022-07-12T04:14:18;53378.50;;;-144.47;77.25
64076;BME280;50327;51.328;12.324;2022-07-12T04:16:44;53368.56;;;-144.47;77.05
64076;BME280;50327;51.328;12.324;2022-07-12T04:19:09;53392.41;;;-144.47;76.94
64076;BME280;50327;51.328;12.324;2022-07-12T04:21:35;53376.50;;;-144.47;76.73
64076;BME280;50327;51.328;12.324;2022-07-12T04:24:01;53338.75;;;-144.47;76.78
64076;BME280;50327;51.328;12.324;2022-07-12T04:26:26;53352.66;;;-144.47;76.79
64076;BME280;50327;51.328;12.324;2022-07-12T04:28:52;53368.56;;;-144.47;76.72
64076;BME280;50327;51.328;12.324;2022-07-12T04:31:17;53328.81;;;-144.47;76.41
64076;BME280;50327;51.328;12.324;2022-07-12T04:33:42;53358.63;;;-144.47;76.52
64076;BME280;50327;51.328;12.324;2022-07-12T04:36:08;53388.41;;;-144.47;76.27
64076;BME280;50327;51.328;12.324;2022-07-12T04:38:33;53354.66;;;-144.47;76.38
64076;BME280;50327;51.328;12.324;2022-07-12T04:40:58;53346.72;;;-144.47;76.36
64076;BME280;50327;51.328;12.324;2022-07-12T04:43:24;53352.66;;;-144.47;76.25
64076;BME280;50327;51.328;12.324;2022-07-12T04:45:50;53374.50;;;-144.47;76.04
64076;BME280;50327;51.328;12.324;2022-07-12T04:48:16;53332.81;;;-144.47;75.73
64076;BME280;50327;51.328;12.324;2022-07-12T04:50:41;53362.59;;;-144.47;75.55
64076;BME280;50327;51.328;12.324;2022-07-12T04:53:07;53338.75;;;-144.47;75.22
64076;BME280;50327;51.328;12.324;2022-07-12T04:55:33;53342.72;;;-144.47;75.43
64076;BME280;50327;51.328;12.324;2022-07-12T04:57:58;53376.50;;;-144.47;75.42
64076;BME280;50327;51.328;12.324;2022-07-12T05:00:23;53316.91;;;-144.47;75.28
64076;BME280;50327;51.328;12.324;2022-07-12T05:02:49;53340.75;;;-144.47;75.26
64076;BME280;50327;51.328;12.324;2022-07-12T05:05:14;53334.78;;;-144.47;74.87
64076;BME280;50327;51.328;12.324;2022-07-12T05:07:41;53305.00;;;-144.47;74.53
64076;BME280;50327;51.328;12.324;2022-07-12T05:10:07;53336.78;;;-144.47;74.67
64076;BME280;50327;51.328;12.324;2022-07-12T05:12:34;53354.66;;;-144.47;74.58
64076;BME280;50327;51.328;12.324;2022-07-12T05:14:59;53340.75;;;-144.47;74.23
64076;BME280;50327;51.328;12.324;2022-07-12T05:17:25;53348.69;;;-144.47;74.01
64076;BME280;50327;51.328;12.324;2022-07-12T05:19:50;53374.50;;;-144.47;73.73
64076;BME280;50327;51.328;12.324;2022-07-12T05:22:15;53350.69;;;-144.47;73.79
64076;BME280;50327;51.328;12.324;2022-07-12T05:24:41;53364.59;;;-144.47;73.21
64076;BME280;50327;51.328;12.324;2022-07-12T05:27:06;53334.78;;;-144.47;73.06
64076;BME280;50327;51.328;12.324;2022-07-12T05:29:31;53350.69;;;-144.47;72.90
64076;BME280;50327;51.328;12.324;2022-07-12T05:31:57;53330.81;;;-144.47;72.67
64076;BME280;50327;51.328;12.324;2022-07-12T05:34:23;53348.69;;;-144.47;72.55
64076;BME280;50327;51.328;12.324;2022-07-12T05:36:48;53320.88;;;-144.47;72.03
64076;BME280;50327;51.328;12.324;2022-07-12T05:39:13;53330.81;;;-144.47;71.96
64076;BME280;50327;51.328;12.324;2022-07-12T05:41:39;53330.81;;;-144.47;71.78
64076;BME280;50327;51.328;12.324;2022-07-12T05:44:04;53320.88;;;-144.47;71.65
64076;BME280;50327;51.328;12.324;2022-07-12T05:46:30;53342.72;;;-144.47;71.42
64076;BME280;50327;51.328;12.324;2022-07-12T05:48:55;53305.00;;;-144.47;70.69
64076;BME280;50327;51.328;12.324;2022-07-12T05:51:21;53338.75;;;-144.47;70.01
64076;BME280;50327;51.328;12.324;2022-07-12T05:54:05;53338.75;;;-144.47;69.25
64076;BME280;50327;51.328;12.324;2022-07-12T05:56:30;53312.94;;;-144.47;68.65
64076;BME280;50327;51.328;12.324;2022-07-12T05:58:55;53303.00;;;-144.47;68.70
64076;BME280;50327;51.328;12.324;2022-07-12T06:01:21;53338.75;;;-144.47;67.95
64076;BME280;50327;51.328;12.324;2022-07-12T06:03:46;53320.88;;;-144.47;67.58
64076;BME280;50327;51.328;12.324;2022-07-12T06:06:12;53322.88;;;-144.47;67.51
64076;BME280;50327;51.328;12.324;2022-07-12T06:08:37;53310.94;;;-144.47;67.35
64076;BME280;50327;51.328;12.324;2022-07-12T06:11:03;53293.06;;;-144.47;67.79
64076;BME280;50327;51.328;12.324;2022-07-12T06:13:28;53308.97;;;-144.47;67.41
64076;BME280;50327;51.328;12.324;2022-07-12T06:15:54;53322.88;;;-144.47;67.34
64076;BME280;50327;51.328;12.324;2022-07-12T06:18:21;53283.13;;;-144.47;67.21
64076;BME280;50327;51.328;12.324;2022-07-12T06:20:46;53324.84;;;-144.47;67.32
64076;BME280;50327;51.328;12.324;2022-07-12T06:23:12;53322.88;;;-144.47;67.33
64076;BME280;50327;51.328;12.324;2022-07-12T06:25:38;53271.22;;;-144.47;66.82
64076;BME280;50327;51.328;12.324;2022-07-12T06:28:04;53267.25;;;-144.47;66.76
64076;BME280;50327;51.328;12.324;2022-07-12T06:30:30;53314.91;;;-144.47;67.03
64076;BME280;50327;51.328;12.324;2022-07-12T06:32:55;53251.34;;;-144.47;66.21
64076;BME280;50327;51.328;12.324;2022-07-12T06:35:20;53287.13;;;-144.47;65.69
64076;BME280;50327;51.328;12.324;2022-07-12T06:37:46;53308.97;;;-144.47;65.91
64076;BME280;50327;51.328;12.324;2022-07-12T06:40:11;53285.13;;;-144.47;65.74
64076;BME280;50327;51.328;12.324;2022-07-12T06:42:37;53312.94;;;-144.47;65.59
64076;BME280;50327;51.328;12.324;2022-07-12T06:45:03;53342.72;;;-144.47;65.17
64076;BME280;50327;51.328;12.324;2022-07-12T06:47:29;53301.03;;;-144.47;65.22
64076;BME280;50327;51.328;12.324;2022-07-12T06:49:54;53324.84;;;-144.47;65.00
64076;BME280;50327;51.328;12.324;2022-07-12T06:52:20;53283.13;;;-144.47;64.66
64076;BME280;50327;51.328;12.324;2022-07-12T06:54:45;53330.81;;;-144.47;64.50
64076;BME280;50327;51.328;12.324;2022-07-12T06:57:11;53316.91;;;-144.47;64.14
64076;BME280;50327;51.328;12.324;2022-07-12T06:59:36;53306.97;;;-144.47;63.48
64076;BME280;50327;51.328;12.324;2022-07-12T07:02:23;53281.16;;;-144.47;63.67
64076;BME280;50327;51.328;12.324;2022-07-12T07:04:49;53314.91;;;-144.47;62.63
64076;BME280;50327;51.328;12.324;2022-07-12T07:07:15;53273.22;;;-144.47;61.84
64076;BME280;50327;51.328;12.324;2022-07-12T07:09:40;53293.06;;;-144.47;61.76
64076;BME280;50327;51.328;12.324;2022-07-12T07:12:06;53305.00;;;-144.47;60.31
64076;BME280;50327;51.328;12.324;2022-07-12T07:14:33;53297.03;;;-144.47;59.06
64076;BME280;50327;51.328;12.324;2022-07-12T07:16:58;53271.22;;;-144.47;59.35
64076;BME280;50327;51.328;12.324;2022-07-12T07:19:23;53241.44;;;-144.47;59.68
64076;BME280;50327;51.328;12.324;2022-07-12T07:21:51;53277.19;;;-144.47;60.31
64076;BME280;50327;51.328;12.324;2022-07-12T07:24:17;53283.13;;;-144.47;60.32
64076;BME280;50327;51.328;12.324;2022-07-12T07:26:42;53299.03;;;-144.47;59.88
64076;BME280;50327;51.328;12.324;2022-07-12T07:29:07;53257.31;;;-144.47;57.94
64076;BME280;50327;51.328;12.324;2022-07-12T07:31:51;53271.22;;;-144.47;58.04
64076;BME280;50327;51.328;12.324;2022-07-12T07:34:17;53259.31;;;-144.47;58.36
64076;BME280;50327;51.328;12.324;2022-07-12T07:36:42;53303.00;;;-144.47;57.80
64076;BME280;50327;51.328;12.324;2022-07-12T07:39:08;53281.16;;;-144.47;56.98
64076;BME280;50327;51.328;12.324;2022-07-12T07:41:34;53283.13;;;-144.47;55.61
64076;BME280;50327;51.328;12.324;2022-07-12T07:43:59;53287.13;;;-144.47;56.37
64076;BME280;50327;51.328;12.324;2022-07-12T07:46:24;53293.06;;;-144.47;56.68
64076;BME280;50327;51.328;12.324;2022-07-12T07:48:50;53277.19;;;-144.47;56.22
64076;BME280;50327;51.328;12.324;2022-07-12T07:51:15;53269.22;;;-144.47;56.22
64076;BME280;50327;51.328;12.324;2022-07-12T07:53:40;53263.28;;;-144.47;53.47
64076;BME280;50327;51.328;12.324;2022-07-12T07:56:06;53297.03;;;-144.47;54.50
64076;BME280;50327;51.328;12.324;2022-07-12T07:58:31;53251.34;;;-144.47;54.73
64076;BME280;50327;51.328;12.324;2022-07-12T08:00:57;53229.50;;;-144.47;54.45
64076;BME280;50327;51.328;12.324;2022-07-12T08:03:22;53249.38;;;-144.47;53.54
64076;BME280;50327;51.328;12.324;2022-07-12T08:05:48;53263.28;;;-144.47;51.77
64076;BME280;50327;51.328;12.324;2022-07-12T08:08:16;53269.22;;;-144.47;51.07
64076;BME280;50327;51.328;12.324;2022-07-12T08:10:41;53247.38;;;-144.47;50.93
64076;BME280;50327;51.328;12.324;2022-07-12T08:13:06;53253.34;;;-144.47;50.26
64076;BME280;50327;51.328;12.324;2022-07-12T08:15:32;53241.44;;;-144.47;49.57
64076;BME280;50327;51.328;12.324;2022-07-12T08:17:57;53263.28;;;-144.47;48.21
64076;BME280;50327;51.328;12.324;2022-07-12T08:20:23;53259.31;;;-144.47;49.01
64076;BME280;50327;51.328;12.324;2022-07-12T08:22:49;53223.56;;;-144.47;49.37
64076;BME280;50327;51.328;12.324;2022-07-12T08:25:15;53241.44;;;-144.47;49.25
64076;BME280;50327;51.328;12.324;2022-07-12T08:27:40;53245.41;;;-144.47;48.45
64076;BME280;50327;51.328;12.324;2022-07-12T08:30:07;53231.50;;;-144.47;48.56
64076;BME280;50327;51.328;12.324;2022-07-12T08:32:32;53263.28;;;-144.47;48.65
64076;BME280;50327;51.328;12.324;2022-07-12T08:34:57;53237.44;;;-144.47;48.31
64076;BME280;50327;51.328;12.324;2022-07-12T08:37:23;53235.47;;;-144.47;48.22
64076;BME280;50327;51.328;12.324;2022-07-12T08:39:48;53211.63;;;-144.47;47.27
64076;BME280;50327;51.328;12.324;2022-07-12T08:42:15;53237.44;;;-144.47;46.42
64076;BME280;50327;51.328;12.324;2022-07-12T08:44:41;53245.41;;;-144.47;46.30
64076;BME280;50327;51.328;12.324;2022-07-12T08:47:09;53217.59;;;-144.47;46.04
64076;BME280;50327;51.328;12.324;2022-07-12T08:49:36;53207.66;;;-144.47;46.17
64076;BME280;50327;51.328;12.324;2022-07-12T08:52:27;53283.13;;;-144.47;46.49
64076;BME280;50327;51.328;12.324;2022-07-12T08:54:52;53235.47;;;-144.47;45.53
64076;BME280;50327;51.328;12.324;2022-07-12T08:57:31;53209.66;;;-144.47;45.29
64076;BME280;50327;51.328;12.324;2022-07-12T09:00:00;53211.63;;;-144.47;45.36
64076;BME280;50327;51.328;12.324;2022-07-12T09:02:26;53227.53;;;-144.47;44.31
64076;BME280;50327;51.328;12.324;2022-07-12T09:05:06;53179.84;;;-144.47;43.06
64076;BME280;50327;51.328;12.324;2022-07-12T09:07:35;53217.59;;;-144.47;42.73
64076;BME280;50327;51.328;12.324;2022-07-12T09:10:05;53233.47;;;-144.47;42.49
64076;BME280;50327;51.328;12.324;2022-07-12T09:12:36;53191.78;;;-144.47;43.27
64076;BME280;50327;51.328;12.324;2022-07-12T09:17:55;53199.72;;;-144.47;42.70
64076;BME280;50327;51.328;12.324;2022-07-12T09:20:31;53203.69;;;-144.47;41.87
64076;BME280;50327;51.328;12.324;2022-07-12T09:23:03;53207.66;;;-144.47;42.03
64076;BME280;50327;51.328;12.324;2022-07-12T09:25:30;53181.84;;;-144.47;41.80
64076;BME280;50327;51.328;12.324;2022-07-12T09:27:58;53189.78;;;-144.47;41.77
64076;BME280;50327;51.328;12.324;2022-07-12T09:30:25;53160.00;;;-144.47;40.58
64076;BME280;50327;51.328;12.324;2022-07-12T09:35:41;53187.78;;;-144.47;41.32
64076;BME280;50327;51.328;12.324;2022-07-12T09:38:26;53183.81;;;-144.47;41.43
64076;BME280;50327;51.328;12.324;2022-07-12T09:40:53;53177.88;;;-144.47;41.25
64076;BME280;50327;51.328;12.324;2022-07-12T09:43:19;53191.78;;;-144.47;40.56
64076;BME280;50327;51.328;12.324;2022-07-12T09:45:49;53197.72;;;-144.47;40.33
64076;BME280;50327;51.328;12.324;2022-07-12T09:48:15;53185.81;;;-144.47;40.34
64076;BME280;50327;51.328;12.324;2022-07-12T09:50:43;53191.78;;;-144.47;40.36
64076;BME280;50327;51.328;12.324;2022-07-12T09:53:10;53191.78;;;-144.47;40.08
64076;BME280;50327;51.328;12.324;2022-07-12T09:55:39;53201.69;;;-144.47;39.97
64076;BME280;50327;51.328;12.324;2022-07-12T09:58:07;53179.84;;;-144.47;39.89
64076;BME280;50327;51.328;12.324;2022-07-12T10:00:33;53160.00;;;-144.47;38.38
64076;BME280;50327;51.328;12.324;2022-07-12T10:02:59;53156.00;;;-144.47;37.50
64076;BME280;50327;51.328;12.324;2022-07-12T10:05:25;53183.81;;;-144.47;38.25
64076;BME280;50327;51.328;12.324;2022-07-12T10:07:51;53197.72;;;-144.47;38.59
64076;BME280;50327;51.328;12.324;2022-07-12T10:10:17;53181.84;;;-144.47;38.72
64076;BME280;50327;51.328;12.324;2022-07-12T10:12:43;53201.69;;;-144.47;39.17
64076;BME280;50327;51.328;12.324;2022-07-12T10:15:14;53185.81;;;-144.47;37.37
64076;BME280;50327;51.328;12.324;2022-07-12T10:17:42;53154.03;;;-144.47;36.74
64076;BME280;50327;51.328;12.324;2022-07-12T10:20:16;53191.78;;;-144.47;37.29
64076;BME280;50327;51.328;12.324;2022-07-12T10:22:42;53185.81;;;-144.47;37.05
64076;BME280;50327;51.328;12.324;2022-07-12T10:27:51;53187.78;;;-144.47;37.35
64076;BME280;50327;51.328;12.324;2022-07-12T10:30:21;53165.94;;;-144.47;37.60
64076;BME280;50327;51.328;12.324;2022-07-12T10:32:48;53152.03;;;-144.47;37.09
64076;BME280;50327;51.328;12.324;2022-07-12T10:35:22;53169.91;;;-144.47;36.88
64076;BME280;50327;51.328;12.324;2022-07-12T10:40:39;53167.94;;;-144.47;36.63
64076;BME280;50327;51.328;12.324;2022-07-12T10:45:37;53160.00;;;-144.47;37.54
64076;BME280;50327;51.328;12.324;2022-07-12T10:48:05;53171.91;;;-144.47;36.98
64076;BME280;50327;51.328;12.324;2022-07-12T10:58:42;53154.03;;;-144.47;36.47
64076;BME280;50327;51.328;12.324;2022-07-12T11:01:09;53189.78;;;-144.47;36.20
64076;BME280;50327;51.328;12.324;2022-07-12T11:04:04;53165.94;;;-144.47;35.79
64076;BME280;50327;51.328;12.324;2022-07-12T11:06:37;53163.97;;;-144.47;35.98
64076;BME280;50327;51.328;12.324;2022-07-12T11:11:31;53148.06;;;-144.47;35.75
64076;BME280;50327;51.328;12.324;2022-07-12T11:14:00;53163.97;;;-144.47;35.44
64076;BME280;50327;51.328;12.324;2022-07-12T11:16:27;53148.06;;;-144.47;34.99
64076;BME280;50327;51.328;12.324;2022-07-12T11:18:53;53146.09;;;-144.47;34.79
64076;BME280;50327;51.328;12.324;2022-07-12T11:21:20;53167.94;;;-144.47;34.80
64076;BME280;50327;51.328;12.324;2022-07-12T11:23:45;53154.03;;;-144.47;34.60
64076;BME280;50327;51.328;12.324;2022-07-12T11:26:12;53158.00;;;-144.47;34.32
64076;BME280;50327;51.328;12.324;2022-07-12T11:28:39;53160.00;;;-144.47;34.70
64076;BME280;50327;51.328;12.324;2022-07-12T11:31:13;53187.78;;;-144.47;35.66
64076;BME280;50327;51.328;12.324;2022-07-12T11:33:41;53118.28;;;-144.47;35.00
64076;BME280;50327;51.328;12.324;2022-07-12T11:36:09;53167.94;;;-144.47;34.91
64076;BME280;50327;51.328;12.324;2022-07-12T11:38:37;53165.94;;;-144.47;34.10
64076;BME280;50327;51.328;12.324;2022-07-12T11:41:04;53183.81;;;-144.47;34.51
64076;BME280;50327;51.328;12.324;2022-07-12T11:43:31;53187.78;;;-144.47;34.33
64076;BME280;50327;51.328;12.324;2022-07-12T11:45:57;53152.03;;;-144.47;34.39
64076;BME280;50327;51.328;12.324;2022-07-12T11:48:23;53165.94;;;-144.47;34.35
64076;BME280;50327;51.328;12.324;2022-07-12T11:50:53;53161.97;;;-144.47;34.46
64076;BME280;50327;51.328;12.324;2022-07-12T11:53:25;53142.09;;;-144.47;34.70
64076;BME280;50327;51.328;12.324;2022-07-12T11:55:56;53126.22;;;-144.47;33.61
64076;BME280;50327;51.328;12.324;2022-07-12T11:58:23;53161.97;;;-144.47;33.49
64076;BME280;50327;51.328;12.324;2022-07-12T12:00:49;53154.03;;;-144.47;33.84
64076;BME280;50327;51.328;12.324;2022-07-12T12:03:17;53154.03;;;-144.47;33.73
64076;BME280;50327;51.328;12.324;2022-07-12T12:05:45;53169.91;;;-144.47;33.77
64076;BME280;50327;51.328;12.324;2022-07-12T12:08:13;53171.91;;;-144.47;33.40
64076;BME280;50327;51.328;12.324;2022-07-12T12:10:48;53146.09;;;-144.47;33.15
64076;BME280;50327;51.328;12.324;2022-07-12T12:13:18;53132.19;;;-144.47;33.22
64076;BME280;50327;51.328;12.324;2022-07-12T12:16:00;53154.03;;;-144.47;32.61
64076;BME280;50327;51.328;12.324;2022-07-12T12:18:39;53163.97;;;-144.47;32.69
64076;BME280;50327;51.328;12.324;2022-07-12T12:21:09;53118.28;;;-144.47;32.58
64076;BME280;50327;51.328;12.324;2022-07-12T12:23:38;53165.94;;;-144.47;32.58
64076;BME280;50327;51.328;12.324;2022-07-12T12:26:20;53130.19;;;-144.47;32.77
64076;BME280;50327;51.328;12.324;2022-07-12T12:28:49;53150.06;;;-144.47;32.53
64076;BME280;50327;51.328;12.324;2022-07-12T12:31:16;53146.09;;;-144.47;32.18
64076;BME280;50327;51.328;12.324;2022-07-12T12:33:47;53122.25;;;-144.47;32.28
64076;BME280;50327;51.328;12.324;2022-07-12T12:36:35;53128.22;;;-144.47;31.94
64076;BME280;50327;51.328;12.324;2022-07-12T12:39:01;53154.03;;;-144.47;31.43
64076;BME280;50327;51.328;12.324;2022-07-12T12:41:28;53144.09;;;-144.47;31.65
64076;BME280;50327;51.328;12.324;2022-07-12T12:44:01;53122.25;;;-144.47;31.67
64076;BME280;50327;51.328;12.324;2022-07-12T12:46:54;53130.19;;;-144.47;31.63
64076;BME280;50327;51.328;12.324;2022-07-12T12:49:49;53128.22;;;-144.47;30.89
64076;BME280;50327;51.328;12.324;2022-07-12T12:52:15;53100.41;;;-144.47;31.07
64076;BME280;50327;51.328;12.324;2022-07-12T12:54:41;53102.38;;;-144.47;29.72
64076;BME280;50327;51.328;12.324;2022-07-12T12:57:08;53124.22;;;-144.47;29.59